sensor_id;sensor_type;location;lat;lon;timestamp;P1;durP1;ratioP1;P2;durP2;ratioP2
32964;SDS011;19317;48.226;11.686;2023-04-03T00:03:18;5.50;;;3.53;;
32964;SDS011;19317;48.226;11.686;2023-04-03T00:08:09;5.63;;;4.10;;
32964;SDS011;19317;48.226;11.686;2023-04-03T00:12:59;4.97;;;4.00;;
32964;SDS011;19317;48.226;11.686;2023-04-03T00:17:50;3.73;;;3.43;;
32964;SDS011;19317;48.226;11.686;2023-04-03T00:22:40;4.03;;;3.57;;
32964;SDS011;19317;48.226;11.686;2023-04-03T00:27:30;3.63;;;3.33;;
32964;SDS011;19317;48.226;11.686;2023-04-03T00:32:21;3.80;;;3.40;;
32964;SDS011;19317;48.226;11.686;2023-04-03T00:37:11;4.23;;;3.57;;
32964;SDS011;19317;48.226;11.686;2023-04-03T00:42:02;4.17;;;3.77;;
32964;SDS011;19317;48.226;11.686;2023-04-03T00:46:52;3.90;;;3.60;;
32964;SDS011;19317;48.226;11.686;2023-04-03T00:51:43;3.80;;;3.30;;
32964;SDS011;19317;48.226;11.686;2023-04-03T00:56:33;3.73;;;3.37;;
32964;SDS011;19317;48.226;11.686;2023-04-03T01:01:27;3.67;;;3.37;;
32964;SDS011;19317;48.226;11.686;2023-04-03T01:06:20;3.97;;;3.60;;
32964;SDS011;19317;48.226;11.686;2023-04-03T01:11:14;3.50;;;3.20;;
32964;SDS011;19317;48.226;11.686;2023-04-03T01:16:05;3.77;;;3.43;;
32964;SDS011;19317;48.226;11.686;2023-04-03T01:21:40;3.70;;;3.40;;
32964;SDS011;19317;48.226;11.686;2023-04-03T01:26:33;4.03;;;3.70;;
32964;SDS011;19317;48.226;11.686;2023-04-03T01:31:28;4.03;;;3.63;;
32964;SDS011;19317;48.226;11.686;2023-04-03T01:36:29;3.83;;;3.53;;
32964;SDS011;19317;48.226;11.686;2023-04-03T01:41:21;4.00;;;3.70;;
32964;SDS011;19317;48.226;11.686;2023-04-03T01:46:11;3.53;;;3.27;;
32964;SDS011;19317;48.226;11.686;2023-04-03T01:51:02;3.70;;;3.40;;
32964;SDS011;19317;48.226;11.686;2023-04-03T01:55:52;4.60;;;3.30;;
32964;SDS011;19317;48.226;11.686;2023-04-03T02:00:43;3.53;;;3.23;;
32964;SDS011;19317;48.226;11.686;2023-04-03T02:05:33;4.07;;;2.90;;
32964;SDS011;19317;48.226;11.686;2023-04-03T02:10:24;3.17;;;2.77;;
32964;SDS011;19317;48.226;11.686;2023-04-03T02:15:14;3.10;;;2.80;;
32964;SDS011;19317;48.226;11.686;2023-04-03T02:20:05;3.20;;;2.90;;
32964;SDS011;19317;48.226;11.686;2023-04-03T02:24:56;4.20;;;3.00;;
32964;SDS011;19317;48.226;11.686;2023-04-03T02:29:47;5.33;;;3.10;;
32964;SDS011;19317;48.226;11.686;2023-04-03T02:34:37;4.73;;;2.90;;
32964;SDS011;19317;48.226;11.686;2023-04-03T02:39:28;2.80;;;2.60;;
32964;SDS011;19317;48.226;11.686;2023-04-03T02:44:19;3.07;;;2.87;;
32964;SDS011;19317;48.226;11.686;2023-04-03T02:49:10;2.70;;;2.50;;
32964;SDS011;19317;48.226;11.686;2023-04-03T02:54:00;3.13;;;2.83;;
32964;SDS011;19317;48.226;11.686;2023-04-03T02:58:51;2.80;;;2.60;;
32964;SDS011;19317;48.226;11.686;2023-04-03T03:03:41;2.90;;;2.70;;
32964;SDS011;19317;48.226;11.686;2023-04-03T03:08:32;3.13;;;2.90;;
32964;SDS011;19317;48.226;11.686;2023-04-03T03:13:23;2.90;;;2.67;;
32964;SDS011;19317;48.226;11.686;2023-04-03T03:18:13;2.73;;;2.53;;
32964;SDS011;19317;48.226;11.686;2023-04-03T03:23:04;3.30;;;2.80;;
32964;SDS011;19317;48.226;11.686;2023-04-03T03:27:54;4.50;;;4.10;;
32964;SDS011;19317;48.226;11.686;2023-04-03T03:32:45;3.30;;;3.00;;
32964;SDS011;19317;48.226;11.686;2023-04-03T03:37:35;2.97;;;2.73;;
32964;SDS011;19317;48.226;11.686;2023-04-03T03:42:26;2.87;;;2.67;;
32964;SDS011;19317;48.226;11.686;2023-04-03T03:47:16;2.83;;;2.50;;
32964;SDS011;19317;48.226;11.686;2023-04-03T03:52:07;3.00;;;2.70;;
32964;SDS011;19317;48.226;11.686;2023-04-03T03:56:57;2.93;;;2.73;;
32964;SDS011;19317;48.226;11.686;2023-04-03T04:01:47;3.07;;;2.77;;
32964;SDS011;19317;48.226;11.686;2023-04-03T04:06:38;2.93;;;2.63;;
32964;SDS011;19317;48.226;11.686;2023-04-03T04:11:28;3.00;;;2.70;;
32964;SDS011;19317;48.226;11.686;2023-04-03T04:16:19;3.23;;;2.93;;
32964;SDS011;19317;48.226;11.686;2023-04-03T04:21:09;2.80;;;2.60;;
32964;SDS011;19317;48.226;11.686;2023-04-03T04:26:00;3.50;;;2.33;;
32964;SDS011;19317;48.226;11.686;2023-04-03T04:30:50;3.60;;;2.83;;
32964;SDS011;19317;48.226;11.686;2023-04-03T04:35:41;2.97;;;2.67;;
32964;SDS011;19317;48.226;11.686;2023-04-03T04:40:32;3.10;;;2.80;;
32964;SDS011;19317;48.226;11.686;2023-04-03T04:45:23;3.27;;;2.70;;
32964;SDS011;19317;48.226;11.686;2023-04-03T04:50:13;2.97;;;2.63;;
32964;SDS011;19317;48.226;11.686;2023-04-03T04:55:04;3.60;;;2.87;;
32964;SDS011;19317;48.226;11.686;2023-04-03T04:59:55;3.07;;;2.80;;
32964;SDS011;19317;48.226;11.686;2023-04-03T05:04:45;3.00;;;2.80;;
32964;SDS011;19317;48.226;11.686;2023-04-03T05:09:36;3.37;;;2.90;;
32964;SDS011;19317;48.226;11.686;2023-04-03T05:14:26;3.03;;;2.80;;
32964;SDS011;19317;48.226;11.686;2023-04-03T05:19:16;3.07;;;2.77;;
32964;SDS011;19317;48.226;11.686;2023-04-03T05:24:07;3.43;;;3.07;;
32964;SDS011;19317;48.226;11.686;2023-04-03T05:28:57;3.27;;;2.97;;
32964;SDS011;19317;48.226;11.686;2023-04-03T05:33:48;3.13;;;2.93;;
32964;SDS011;19317;48.226;11.686;2023-04-03T05:38:39;3.17;;;2.90;;
32964;SDS011;19317;48.226;11.686;2023-04-03T05:43:29;4.60;;;3.50;;
32964;SDS011;19317;48.226;11.686;2023-04-03T05:48:20;3.63;;;3.20;;
32964;SDS011;19317;48.226;11.686;2023-04-03T05:53:13;3.73;;;3.10;;
32964;SDS011;19317;48.226;11.686;2023-04-03T05:58:11;3.77;;;3.10;;
32964;SDS011;19317;48.226;11.686;2023-04-03T06:03:01;3.47;;;3.17;;
32964;SDS011;19317;48.226;11.686;2023-04-03T06:07:52;3.30;;;3.00;;
32964;SDS011;19317;48.226;11.686;2023-04-03T06:12:42;3.13;;;2.80;;
32964;SDS011;19317;48.226;11.686;2023-04-03T06:17:33;3.83;;;3.40;;
32964;SDS011;19317;48.226;11.686;2023-04-03T06:22:23;3.30;;;3.00;;
32964;SDS011;19317;48.226;11.686;2023-04-03T06:27:14;3.40;;;3.03;;
32964;SDS011;19317;48.226;11.686;2023-04-03T06:32:04;4.10;;;3.43;;
32964;SDS011;19317;48.226;11.686;2023-04-03T06:36:55;3.87;;;3.20;;
32964;SDS011;19317;48.226;11.686;2023-04-03T06:41:45;4.30;;;3.10;;
32964;SDS011;19317;48.226;11.686;2023-04-03T06:46:36;3.73;;;3.30;;
32964;SDS011;19317;48.226;11.686;2023-04-03T06:51:28;3.30;;;3.00;;
32964;SDS011;19317;48.226;11.686;2023-04-03T06:56:19;3.73;;;3.33;;
32964;SDS011;19317;48.226;11.686;2023-04-03T07:01:10;4.60;;;3.27;;
32964;SDS011;19317;48.226;11.686;2023-04-03T07:06:03;3.70;;;3.40;;
32964;SDS011;19317;48.226;11.686;2023-04-03T07:10:54;3.20;;;2.90;;
32964;SDS011;19317;48.226;11.686;2023-04-03T07:15:44;3.60;;;3.30;;
32964;SDS011;19317;48.226;11.686;2023-04-03T07:20:35;4.70;;;3.20;;
32964;SDS011;19317;48.226;11.686;2023-04-03T07:25:25;4.30;;;3.50;;
32964;SDS011;19317;48.226;11.686;2023-04-03T07:30:16;4.40;;;3.63;;
32964;SDS011;19317;48.226;11.686;2023-04-03T07:35:06;4.13;;;3.50;;
32964;SDS011;19317;48.226;11.686;2023-04-03T07:39:57;4.57;;;4.17;;
32964;SDS011;19317;48.226;11.686;2023-04-03T07:44:48;4.27;;;3.67;;
32964;SDS011;19317;48.226;11.686;2023-04-03T07:49:38;4.03;;;3.73;;
32964;SDS011;19317;48.226;11.686;2023-04-03T07:54:29;4.47;;;3.90;;
32964;SDS011;19317;48.226;11.686;2023-04-03T07:59:19;7.40;;;4.40;;
32964;SDS011;19317;48.226;11.686;2023-04-03T08:04:09;4.30;;;3.90;;
32964;SDS011;19317;48.226;11.686;2023-04-03T08:09:00;4.30;;;3.90;;
32964;SDS011;19317;48.226;11.686;2023-04-03T08:13:51;4.83;;;4.13;;
32964;SDS011;19317;48.226;11.686;2023-04-03T08:18:42;4.73;;;4.07;;
32964;SDS011;19317;48.226;11.686;2023-04-03T08:23:33;4.97;;;4.20;;
32964;SDS011;19317;48.226;11.686;2023-04-03T08:28:24;8.47;;;4.23;;
32964;SDS011;19317;48.226;11.686;2023-04-03T08:33:14;4.10;;;3.80;;
32964;SDS011;19317;48.226;11.686;2023-04-03T08:38:05;4.73;;;3.63;;
32964;SDS011;19317;48.226;11.686;2023-04-03T08:53:17;4.13;;;3.73;;
32964;SDS011;19317;48.226;11.686;2023-04-03T08:58:12;4.60;;;3.60;;
32964;SDS011;19317;48.226;11.686;2023-04-03T09:03:10;5.37;;;3.90;;
32964;SDS011;19317;48.226;11.686;2023-04-03T09:13:30;3.83;;;3.53;;
32964;SDS011;19317;48.226;11.686;2023-04-03T09:18:30;4.13;;;3.73;;
32964;SDS011;19317;48.226;11.686;2023-04-03T09:28:21;4.00;;;3.60;;
32964;SDS011;19317;48.226;11.686;2023-04-03T09:33:12;4.73;;;3.80;;
32964;SDS011;19317;48.226;11.686;2023-04-03T09:43:02;4.20;;;3.80;;
32964;SDS011;19317;48.226;11.686;2023-04-03T09:53:06;5.20;;;3.47;;
32964;SDS011;19317;48.226;11.686;2023-04-03T09:58:24;3.50;;;3.20;;
32964;SDS011;19317;48.226;11.686;2023-04-03T10:03:33;5.20;;;3.30;;
32964;SDS011;19317;48.226;11.686;2023-04-03T10:08:26;3.87;;;3.27;;
32964;SDS011;19317;48.226;11.686;2023-04-03T10:13:20;3.87;;;3.37;;
32964;SDS011;19317;48.226;11.686;2023-04-03T10:18:22;3.90;;;3.17;;
32964;SDS011;19317;48.226;11.686;2023-04-03T10:23:18;3.73;;;2.80;;
32964;SDS011;19317;48.226;11.686;2023-04-03T10:38:23;4.17;;;2.97;;
32964;SDS011;19317;48.226;11.686;2023-04-03T10:58:48;2.97;;;2.67;;
32964;SDS011;19317;48.226;11.686;2023-04-03T11:03:48;3.47;;;3.03;;
32964;SDS011;19317;48.226;11.686;2023-04-03T11:08:51;4.23;;;3.00;;
32964;SDS011;19317;48.226;11.686;2023-04-03T11:13:49;3.40;;;2.80;;
32964;SDS011;19317;48.226;11.686;2023-04-03T11:19:18;2.83;;;2.50;;
32964;SDS011;19317;48.226;11.686;2023-04-03T11:24:32;2.63;;;2.43;;
32964;SDS011;19317;48.226;11.686;2023-04-03T11:29:23;3.63;;;2.33;;
32964;SDS011;19317;48.226;11.686;2023-04-03T11:39:26;2.40;;;2.20;;
32964;SDS011;19317;48.226;11.686;2023-04-03T11:44:35;2.80;;;2.50;;
32964;SDS011;19317;48.226;11.686;2023-04-03T11:59:37;3.37;;;2.50;;
32964;SDS011;19317;48.226;11.686;2023-04-03T12:04:27;4.23;;;2.33;;
32964;SDS011;19317;48.226;11.686;2023-04-03T12:14:30;2.67;;;2.47;;
32964;SDS011;19317;48.226;11.686;2023-04-03T12:24:29;2.67;;;2.13;;
32964;SDS011;19317;48.226;11.686;2023-04-03T12:45:02;3.37;;;1.97;;
32964;SDS011;19317;48.226;11.686;2023-04-03T12:55:15;2.97;;;2.30;;
32964;SDS011;19317;48.226;11.686;2023-04-03T13:00:20;2.53;;;2.13;;
32964;SDS011;19317;48.226;11.686;2023-04-03T13:05:17;2.40;;;2.20;;
32964;SDS011;19317;48.226;11.686;2023-04-03T13:15:11;2.77;;;2.20;;
32964;SDS011;19317;48.226;11.686;2023-04-03T13:20:24;2.37;;;2.17;;
32964;SDS011;19317;48.226;11.686;2023-04-03T13:25:19;2.30;;;2.10;;
32964;SDS011;19317;48.226;11.686;2023-04-03T13:30:20;2.30;;;2.10;;
32964;SDS011;19317;48.226;11.686;2023-04-03T13:35:38;2.43;;;2.23;;
32964;SDS011;19317;48.226;11.686;2023-04-03T13:40:30;2.50;;;2.30;;
32964;SDS011;19317;48.226;11.686;2023-04-03T13:55:31;4.33;;;2.30;;
32964;SDS011;19317;48.226;11.686;2023-04-03T14:00:30;2.53;;;2.00;;
32964;SDS011;19317;48.226;11.686;2023-04-03T14:05:27;2.30;;;2.10;;
32964;SDS011;19317;48.226;11.686;2023-04-03T14:10:18;2.40;;;2.20;;
32964;SDS011;19317;48.226;11.686;2023-04-03T14:15:20;2.57;;;2.13;;
32964;SDS011;19317;48.226;11.686;2023-04-03T14:20:16;2.23;;;2.10;;
32964;SDS011;19317;48.226;11.686;2023-04-03T14:25:08;2.37;;;2.20;;
32964;SDS011;19317;48.226;11.686;2023-04-03T14:29:59;4.77;;;3.10;;
32964;SDS011;19317;48.226;11.686;2023-04-03T14:34:50;3.13;;;2.30;;
32964;SDS011;19317;48.226;11.686;2023-04-03T14:39:42;2.20;;;2.00;;
32964;SDS011;19317;48.226;11.686;2023-04-03T14:44:33;2.30;;;2.10;;
32964;SDS011;19317;48.226;11.686;2023-04-03T14:49:25;2.30;;;2.10;;
32964;SDS011;19317;48.226;11.686;2023-04-03T14:54:18;2.10;;;2.00;;
32964;SDS011;19317;48.226;11.686;2023-04-03T14:59:11;2.30;;;2.10;;
32964;SDS011;19317;48.226;11.686;2023-04-03T15:04:08;2.13;;;1.93;;
32964;SDS011;19317;48.226;11.686;2023-04-03T15:09:01;4.30;;;2.00;;
32964;SDS011;19317;48.226;11.686;2023-04-03T15:13:52;2.40;;;2.20;;
32964;SDS011;19317;48.226;11.686;2023-04-03T15:18:42;3.13;;;2.00;;
32964;SDS011;19317;48.226;11.686;2023-04-03T15:23:34;2.47;;;2.27;;
32964;SDS011;19317;48.226;11.686;2023-04-03T15:28:28;2.27;;;2.07;;
32964;SDS011;19317;48.226;11.686;2023-04-03T15:33:20;2.93;;;2.40;;
32964;SDS011;19317;48.226;11.686;2023-04-03T15:38:11;2.53;;;2.20;;
32964;SDS011;19317;48.226;11.686;2023-04-03T15:43:01;2.90;;;2.23;;
32964;SDS011;19317;48.226;11.686;2023-04-03T15:47:52;2.20;;;2.00;;
32964;SDS011;19317;48.226;11.686;2023-04-03T15:52:42;2.77;;;2.10;;
32964;SDS011;19317;48.226;11.686;2023-04-03T15:57:33;4.13;;;2.30;;
32964;SDS011;19317;48.226;11.686;2023-04-03T16:02:23;2.80;;;2.27;;
32964;SDS011;19317;48.226;11.686;2023-04-03T16:07:14;2.17;;;2.00;;
32964;SDS011;19317;48.226;11.686;2023-04-03T16:12:04;4.20;;;3.03;;
32964;SDS011;19317;48.226;11.686;2023-04-03T16:16:56;2.90;;;2.33;;
32964;SDS011;19317;48.226;11.686;2023-04-03T16:21:47;2.50;;;2.30;;
32964;SDS011;19317;48.226;11.686;2023-04-03T16:26:38;2.50;;;1.90;;
32964;SDS011;19317;48.226;11.686;2023-04-03T16:31:29;2.40;;;2.20;;
32964;SDS011;19317;48.226;11.686;2023-04-03T16:36:23;3.30;;;3.00;;
32964;SDS011;19317;48.226;11.686;2023-04-03T16:41:14;3.73;;;2.30;;
32964;SDS011;19317;48.226;11.686;2023-04-03T16:46:04;2.90;;;2.60;;
32964;SDS011;19317;48.226;11.686;2023-04-03T16:50:55;2.87;;;2.00;;
32964;SDS011;19317;48.226;11.686;2023-04-03T16:55:45;2.27;;;2.07;;
32964;SDS011;19317;48.226;11.686;2023-04-03T17:00:36;2.30;;;2.10;;
32964;SDS011;19317;48.226;11.686;2023-04-03T17:05:27;2.47;;;2.27;;
32964;SDS011;19317;48.226;11.686;2023-04-03T17:10:17;2.30;;;2.10;;
32964;SDS011;19317;48.226;11.686;2023-04-03T17:15:08;2.90;;;2.60;;
32964;SDS011;19317;48.226;11.686;2023-04-03T17:19:59;3.60;;;2.17;;
32964;SDS011;19317;48.226;11.686;2023-04-03T17:24:49;2.50;;;2.30;;
32964;SDS011;19317;48.226;11.686;2023-04-03T17:29:40;3.57;;;2.40;;
32964;SDS011;19317;48.226;11.686;2023-04-03T17:34:30;2.40;;;2.10;;
32964;SDS011;19317;48.226;11.686;2023-04-03T17:39:21;2.50;;;2.30;;
32964;SDS011;19317;48.226;11.686;2023-04-03T17:44:12;2.57;;;2.37;;
32964;SDS011;19317;48.226;11.686;2023-04-03T17:49:02;3.90;;;3.03;;
32964;SDS011;19317;48.226;11.686;2023-04-03T17:53:53;2.73;;;2.10;;
32964;SDS011;19317;48.226;11.686;2023-04-03T17:58:43;2.40;;;2.20;;
32964;SDS011;19317;48.226;11.686;2023-04-03T18:03:34;2.80;;;2.60;;
32964;SDS011;19317;48.226;11.686;2023-04-03T18:08:25;3.83;;;2.60;;
32964;SDS011;19317;48.226;11.686;2023-04-03T18:13:16;2.13;;;2.00;;
32964;SDS011;19317;48.226;11.686;2023-04-03T18:18:06;7.23;;;4.30;;
32964;SDS011;19317;48.226;11.686;2023-04-03T18:22:57;2.40;;;2.20;;
32964;SDS011;19317;48.226;11.686;2023-04-03T18:27:48;4.33;;;2.33;;
32964;SDS011;19317;48.226;11.686;2023-04-03T18:32:38;3.37;;;2.33;;
32964;SDS011;19317;48.226;11.686;2023-04-03T18:37:29;2.50;;;2.30;;
32964;SDS011;19317;48.226;11.686;2023-04-03T18:42:20;2.40;;;2.20;;
32964;SDS011;19317;48.226;11.686;2023-04-03T18:47:13;3.33;;;2.40;;
32964;SDS011;19317;48.226;11.686;2023-04-03T18:52:03;2.57;;;2.17;;
32964;SDS011;19317;48.226;11.686;2023-04-03T18:56:54;2.60;;;2.30;;
32964;SDS011;19317;48.226;11.686;2023-04-03T19:01:44;2.77;;;2.43;;
32964;SDS011;19317;48.226;11.686;2023-04-03T19:06:35;2.67;;;2.33;;
32964;SDS011;19317;48.226;11.686;2023-04-03T19:11:26;2.40;;;2.20;;
32964;SDS011;19317;48.226;11.686;2023-04-03T19:16:16;2.40;;;2.20;;
32964;SDS011;19317;48.226;11.686;2023-04-03T19:21:07;2.47;;;2.27;;
32964;SDS011;19317;48.226;11.686;2023-04-03T19:25:58;2.80;;;2.20;;
32964;SDS011;19317;48.226;11.686;2023-04-03T19:30:50;3.17;;;2.37;;
32964;SDS011;19317;48.226;11.686;2023-04-03T19:35:41;2.40;;;2.20;;
32964;SDS011;19317;48.226;11.686;2023-04-03T19:40:31;3.53;;;2.47;;
32964;SDS011;19317;48.226;11.686;2023-04-03T19:45:22;2.47;;;2.27;;
32964;SDS011;19317;48.226;11.686;2023-04-03T19:50:12;2.83;;;2.30;;
32964;SDS011;19317;48.226;11.686;2023-04-03T19:55:03;3.10;;;2.40;;
32964;SDS011;19317;48.226;11.686;2023-04-03T19:59:54;4.50;;;2.67;;
32964;SDS011;19317;48.226;11.686;2023-04-03T20:04:44;2.83;;;2.37;;
32964;SDS011;19317;48.226;11.686;2023-04-03T20:09:35;4.50;;;2.40;;
32964;SDS011;19317;48.226;11.686;2023-04-03T20:14:25;3.50;;;2.40;;
32964;SDS011;19317;48.226;11.686;2023-04-03T20:19:16;2.97;;;2.57;;
32964;SDS011;19317;48.226;11.686;2023-04-03T20:24:07;3.77;;;2.40;;
32964;SDS011;19317;48.226;11.686;2023-04-03T20:28:58;4.10;;;2.50;;
32964;SDS011;19317;48.226;11.686;2023-04-03T20:33:50;2.80;;;2.33;;
32964;SDS011;19317;48.226;11.686;2023-04-03T20:38:41;2.53;;;2.33;;
32964;SDS011;19317;48.226;11.686;2023-04-03T20:43:31;4.17;;;2.50;;
32964;SDS011;19317;48.226;11.686;2023-04-03T20:48:22;2.63;;;2.27;;
32964;SDS011;19317;48.226;11.686;2023-04-03T20:53:13;3.73;;;2.50;;
32964;SDS011;19317;48.226;11.686;2023-04-03T20:58:03;2.80;;;2.40;;
32964;SDS011;19317;48.226;11.686;2023-04-03T21:02:54;3.13;;;2.50;;
32964;SDS011;19317;48.226;11.686;2023-04-03T21:23:39;2.77;;;2.50;;
32964;SDS011;19317;48.226;11.686;2023-04-03T21:28:30;2.53;;;2.30;;
32964;SDS011;19317;48.226;11.686;2023-04-03T21:33:20;2.90;;;2.60;;
32964;SDS011;19317;48.226;11.686;2023-04-03T21:38:10;3.13;;;2.47;;
32964;SDS011;19317;48.226;11.686;2023-04-03T21:43:01;3.40;;;2.30;;
32964;SDS011;19317;48.226;11.686;2023-04-03T21:47:51;3.73;;;2.30;;
32964;SDS011;19317;48.226;11.686;2023-04-03T21:52:42;2.50;;;2.30;;
32964;SDS011;19317;48.226;11.686;2023-04-03T21:57:32;2.50;;;2.30;;
32964;SDS011;19317;48.226;11.686;2023-04-03T22:02:23;2.77;;;2.50;;
32964;SDS011;19317;48.226;11.686;2023-04-03T22:07:13;6.60;;;2.70;;
32964;SDS011;19317;48.226;11.686;2023-04-03T22:12:04;3.30;;;2.73;;
32964;SDS011;19317;48.226;11.686;2023-04-03T22:16:54;3.23;;;2.43;;
32964;SDS011;19317;48.226;11.686;2023-04-03T22:21:45;3.70;;;2.70;;
32964;SDS011;19317;48.226;11.686;2023-04-03T22:26:35;4.23;;;3.00;;
32964;SDS011;19317;48.226;11.686;2023-04-03T22:31:26;3.77;;;2.47;;
32964;SDS011;19317;48.226;11.686;2023-04-03T22:36:16;4.47;;;2.57;;
32964;SDS011;19317;48.226;11.686;2023-04-03T22:41:07;2.60;;;2.40;;
32964;SDS011;19317;48.226;11.686;2023-04-03T22:46:01;3.07;;;2.77;;
32964;SDS011;19317;48.226;11.686;2023-04-03T22:50:52;2.60;;;2.40;;
32964;SDS011;19317;48.226;11.686;2023-04-03T22:55:43;2.97;;;2.53;;
32964;SDS011;19317;48.226;11.686;2023-04-03T23:00:42;3.00;;;2.57;;
32964;SDS011;19317;48.226;11.686;2023-04-03T23:05:33;2.63;;;2.43;;
32964;SDS011;19317;48.226;11.686;2023-04-03T23:10:23;2.70;;;2.50;;
32964;SDS011;19317;48.226;11.686;2023-04-03T23:15:13;2.50;;;2.30;;
32964;SDS011;19317;48.226;11.686;2023-04-03T23:20:04;3.03;;;2.57;;
32964;SDS011;19317;48.226;11.686;2023-04-03T23:24:55;3.40;;;2.50;;
32964;SDS011;19317;48.226;11.686;2023-04-03T23:29:46;2.80;;;2.60;;
32964;SDS011;19317;48.226;11.686;2023-04-03T23:34:36;3.27;;;2.37;;
32964;SDS011;19317;48.226;11.686;2023-04-03T23:39:27;3.13;;;2.53;;
32964;SDS011;19317;48.226;11.686;2023-04-03T23:44:17;2.77;;;2.53;;
32964;SDS011;19317;48.226;11.686;2023-04-03T23:49:07;3.20;;;2.40;;
32964;SDS011;19317;48.226;11.686;2023-04-03T23:53:58;3.07;;;2.70;;
32964;SDS011;19317;48.226;11.686;2023-04-03T23:58:48;2.97;;;2.60;;
